createdAt,value
2023-03-31T00:00:01.506Z,0.55
2023-03-31T00:01:01.494Z,0.54
2023-03-31T00:02:01.534Z,0.54
2023-03-31T00:03:01.576Z,0.54
2023-03-31T00:04:01.808Z,0.53
2023-03-31T00:05:01.722Z,0.54
2023-03-31T00:06:01.667Z,0.55
2023-03-31T00:07:01.706Z,0.54
2023-03-31T00:08:01.776Z,0.56
2023-03-31T00:09:01.836Z,0.56
2023-03-31T00:10:14.391Z,0.55
2023-03-31T00:11:02.849Z,0.55
2023-03-31T00:12:01.825Z,0.56
2023-03-31T00:13:01.825Z,0.57
2023-03-31T00:14:01.837Z,0.58
2023-03-31T00:15:01.834Z,0.60
2023-03-31T00:16:01.836Z,0.63
2023-03-31T00:17:01.827Z,0.61
2023-03-31T00:18:01.827Z,0.62
2023-03-31T00:19:01.803Z,0.63
2023-03-31T00:20:01.819Z,0.65
2023-03-31T00:21:02.442Z,0.66
2023-03-31T00:22:01.780Z,0.68
2023-03-31T00:23:01.790Z,0.68
2023-03-31T00:24:01.805Z,0.73
2023-03-31T00:25:01.839Z,0.73
2023-03-31T00:26:01.847Z,0.73
2023-03-31T00:27:01.863Z,0.71
2023-03-31T00:28:01.879Z,0.71
2023-03-31T00:29:01.898Z,0.67
2023-03-31T00:30:01.932Z,0.68
2023-03-31T00:31:01.972Z,0.69
2023-03-31T00:32:02.095Z,0.71
2023-03-31T00:33:02.155Z,0.69
2023-03-31T00:34:02.120Z,0.70
2023-03-31T00:35:02.178Z,0.68
2023-03-31T00:36:02.480Z,0.68
2023-03-31T00:37:02.253Z,0.68
2023-03-31T00:38:02.304Z,0.68
2023-03-31T00:39:02.381Z,0.67
2023-03-31T00:40:02.404Z,0.68
2023-03-31T00:41:02.464Z,0.69
2023-03-31T00:42:02.543Z,0.68
2023-03-31T00:43:02.558Z,0.70
2023-03-31T00:44:02.595Z,0.68
2023-03-31T00:45:02.652Z,0.71
2023-03-31T00:46:02.692Z,0.71
2023-03-31T00:47:02.649Z,0.72
2023-03-31T00:48:02.723Z,0.71
2023-03-31T00:49:02.727Z,0.74
2023-03-31T00:50:02.785Z,0.73
2023-03-31T00:51:02.813Z,0.72
2023-03-31T00:52:02.846Z,0.72
2023-03-31T00:53:02.898Z,0.72
2023-03-31T00:54:02.934Z,0.72
2023-03-31T00:55:02.950Z,0.72
2023-03-31T00:56:03.055Z,0.72
2023-03-31T00:57:03.055Z,0.72
2023-03-31T00:58:02.994Z,0.74
2023-03-31T00:59:03.017Z,0.76
2023-03-31T01:00:03.055Z,0.75
2023-03-31T01:01:03.092Z,0.76
2023-03-31T01:02:03.099Z,0.79
2023-03-31T01:03:03.181Z,0.78
2023-03-31T01:04:03.227Z,0.76
2023-03-31T01:05:03.296Z,0.76
2023-03-31T01:06:04.262Z,0.72
2023-03-31T01:07:03.335Z,0.73
2023-03-31T01:08:03.340Z,0.75
2023-03-31T01:09:03.415Z,0.80
2023-03-31T01:10:03.460Z,0.81
2023-03-31T01:11:03.499Z,0.76
2023-03-31T01:12:03.553Z,0.75
2023-03-31T01:13:03.600Z,0.71
2023-03-31T01:14:03.636Z,0.70
2023-03-31T01:15:03.713Z,0.67
2023-03-31T01:16:03.825Z,0.65
2023-03-31T01:17:03.921Z,0.60
2023-03-31T01:18:03.914Z,0.60
2023-03-31T01:19:03.823Z,0.59
2023-03-31T01:20:03.833Z,0.60
2023-03-31T01:21:03.884Z,0.59
2023-03-31T01:22:03.905Z,0.59
2023-03-31T01:23:03.957Z,0.56
2023-03-31T01:24:04.001Z,0.56
2023-03-31T01:25:04.070Z,0.55
2023-03-31T01:26:04.345Z,0.57
2023-03-31T01:27:04.112Z,0.59
2023-03-31T01:28:04.133Z,0.63
2023-03-31T01:29:04.172Z,0.66
2023-03-31T01:30:04.157Z,0.67
2023-03-31T01:31:04.194Z,0.67
2023-03-31T01:32:04.183Z,0.64
2023-03-31T01:33:04.241Z,0.61
2023-03-31T01:34:04.246Z,0.58
2023-03-31T01:35:04.352Z,0.56
2023-03-31T01:36:04.515Z,0.55
2023-03-31T01:37:04.383Z,0.53
2023-03-31T01:38:04.437Z,0.53
2023-03-31T01:39:04.463Z,0.55
2023-03-31T01:40:04.485Z,0.57
2023-03-31T01:41:04.533Z,0.60
2023-03-31T01:42:04.579Z,0.63
2023-03-31T01:43:04.680Z,0.67
2023-03-31T01:44:04.718Z,0.72
2023-03-31T01:45:04.770Z,0.70
2023-03-31T01:46:05.011Z,0.70
2023-03-31T01:47:04.802Z,0.70
2023-03-31T01:48:04.896Z,0.71
2023-03-31T01:49:04.899Z,0.72
2023-03-31T01:50:04.986Z,0.71
2023-03-31T01:51:05.008Z,0.71
2023-03-31T01:52:05.123Z,0.72
2023-03-31T01:53:05.122Z,0.75
2023-03-31T01:54:05.157Z,0.75
2023-03-31T01:55:05.199Z,0.73
2023-03-31T01:56:05.385Z,0.72
2023-03-31T01:57:05.251Z,0.70
2023-03-31T01:58:05.299Z,0.69
2023-03-31T01:59:05.306Z,0.69
2023-03-31T02:00:05.327Z,0.66
2023-03-31T02:01:05.367Z,0.68
2023-03-31T02:02:05.448Z,0.66
2023-03-31T02:03:05.519Z,0.63
2023-03-31T02:04:05.448Z,0.61
2023-03-31T02:05:05.449Z,0.59
2023-03-31T02:06:05.630Z,0.56
2023-03-31T02:07:05.527Z,0.55
2023-03-31T02:08:05.577Z,0.55
2023-03-31T02:09:05.595Z,0.62
2023-03-31T02:10:05.600Z,0.67
2023-03-31T02:11:05.650Z,0.66
2023-03-31T02:12:05.693Z,0.63
2023-03-31T02:13:05.739Z,0.59
2023-03-31T02:14:05.813Z,0.54
2023-03-31T02:15:05.847Z,0.52
2023-03-31T02:16:06.095Z,0.50
2023-03-31T02:17:05.950Z,0.52
2023-03-31T02:18:06.071Z,0.51
2023-03-31T02:19:06.011Z,0.50
2023-03-31T02:20:06.058Z,0.54
2023-03-31T02:21:06.111Z,0.57
2023-03-31T02:22:06.143Z,0.59
2023-03-31T02:23:06.200Z,0.60
2023-03-31T02:24:06.256Z,0.61
2023-03-31T02:25:06.299Z,0.60
2023-03-31T02:26:06.527Z,0.61
2023-03-31T02:27:06.451Z,0.62
2023-03-31T02:28:06.403Z,0.63
2023-03-31T02:29:06.469Z,0.65
2023-03-31T02:30:06.530Z,0.66
2023-03-31T02:31:06.620Z,0.63
2023-03-31T02:32:06.611Z,0.65
2023-03-31T02:33:06.670Z,0.65
2023-03-31T02:34:06.716Z,0.66
2023-03-31T02:35:06.795Z,0.68
2023-03-31T02:36:06.976Z,0.69
2023-03-31T02:37:06.880Z,0.68
2023-03-31T02:38:06.946Z,0.66
2023-03-31T02:39:06.955Z,0.67
2023-03-31T02:40:07.023Z,0.65
2023-03-31T02:41:07.032Z,0.63
2023-03-31T02:42:07.165Z,0.60
2023-03-31T02:43:07.104Z,0.61
2023-03-31T02:44:07.113Z,0.61
2023-03-31T02:45:07.128Z,0.63
2023-03-31T02:46:07.323Z,0.63
2023-03-31T02:47:07.141Z,0.68
2023-03-31T02:48:07.173Z,0.70
2023-03-31T02:49:07.187Z,0.68
2023-03-31T02:50:07.234Z,0.70
2023-03-31T02:51:07.221Z,0.73
2023-03-31T02:52:07.231Z,0.71
2023-03-31T02:53:07.258Z,0.70
2023-03-31T02:54:07.309Z,0.69
2023-03-31T02:55:07.336Z,0.70
2023-03-31T02:56:07.533Z,0.71
2023-03-31T02:57:07.437Z,0.76
2023-03-31T02:58:07.429Z,0.73
2023-03-31T02:59:07.496Z,0.74
2023-03-31T03:00:07.541Z,0.73
2023-03-31T03:01:07.721Z,0.71
2023-03-31T03:02:07.725Z,0.69
2023-03-31T03:03:07.788Z,0.69
2023-03-31T03:04:07.708Z,0.68
2023-03-31T03:05:07.755Z,0.67
2023-03-31T03:06:07.977Z,0.64
2023-03-31T03:07:07.840Z,0.67
2023-03-31T03:08:07.868Z,0.69
2023-03-31T03:09:07.917Z,0.73
2023-03-31T03:10:07.944Z,0.72
2023-03-31T03:11:07.923Z,0.72
2023-03-31T03:12:07.944Z,0.74
2023-03-31T03:13:07.979Z,0.74
2023-03-31T03:14:08.006Z,0.79
2023-03-31T03:15:08.065Z,0.80
2023-03-31T03:16:08.176Z,0.80
2023-03-31T03:17:08.105Z,0.78
2023-03-31T03:18:08.198Z,0.76
2023-03-31T03:19:08.170Z,0.79
2023-03-31T03:20:08.260Z,0.78
2023-03-31T03:21:08.238Z,0.77
2023-03-31T03:22:09.309Z,0.76
2023-03-31T03:23:08.349Z,0.77
2023-03-31T03:24:08.415Z,0.80
2023-03-31T03:25:08.439Z,0.80
2023-03-31T03:26:08.479Z,0.79
2023-03-31T03:27:08.532Z,0.80
2023-03-31T03:28:08.574Z,0.80
2023-03-31T03:29:08.619Z,0.75
2023-03-31T03:30:08.692Z,0.73
2023-03-31T03:31:08.711Z,0.71
2023-03-31T03:32:08.729Z,0.67
2023-03-31T03:33:08.786Z,0.64
2023-03-31T03:34:08.794Z,0.63
2023-03-31T03:35:08.814Z,0.60
2023-03-31T03:36:09.165Z,0.61
2023-03-31T03:37:08.924Z,0.60
2023-03-31T03:38:08.953Z,0.61
2023-03-31T03:39:08.992Z,0.65
2023-03-31T03:40:08.993Z,0.71
2023-03-31T03:41:09.038Z,0.74
2023-03-31T03:42:09.098Z,0.76
2023-03-31T03:43:09.088Z,0.79
2023-03-31T03:44:09.130Z,0.80
2023-03-31T03:45:09.187Z,0.80
2023-03-31T03:46:09.355Z,0.79
2023-03-31T03:47:09.229Z,0.82
2023-03-31T03:48:09.291Z,0.79
2023-03-31T03:49:09.268Z,0.82
2023-03-31T03:50:09.340Z,0.85
2023-03-31T03:51:09.369Z,0.83
2023-03-31T03:52:09.435Z,0.83
2023-03-31T03:53:09.459Z,0.82
2023-03-31T03:54:09.464Z,0.80
2023-03-31T03:55:09.482Z,0.78
2023-03-31T03:56:09.501Z,0.78
2023-03-31T03:57:09.670Z,0.82
2023-03-31T03:58:09.610Z,0.84
2023-03-31T03:59:09.652Z,0.81
2023-03-31T04:00:09.663Z,0.78
2023-03-31T04:01:09.682Z,0.76
2023-03-31T04:02:09.750Z,0.73
2023-03-31T04:03:09.734Z,0.78
2023-03-31T04:04:09.763Z,0.80
2023-03-31T04:05:09.824Z,0.79
2023-03-31T04:06:09.802Z,0.77
2023-03-31T04:07:09.852Z,0.76
2023-03-31T04:08:09.870Z,0.76
2023-03-31T04:09:09.927Z,0.74
2023-03-31T04:10:09.977Z,0.69
2023-03-31T04:11:10.017Z,0.65
2023-03-31T04:12:10.045Z,0.65
2023-03-31T04:13:10.058Z,0.66
2023-03-31T04:14:10.104Z,0.69
2023-03-31T04:15:10.120Z,0.73
2023-03-31T04:16:10.192Z,0.76
2023-03-31T04:17:10.187Z,0.76
2023-03-31T04:18:10.265Z,0.76
2023-03-31T04:19:10.275Z,0.75
2023-03-31T04:20:10.350Z,0.75
2023-03-31T04:21:10.307Z,0.77
2023-03-31T04:22:10.350Z,0.80
2023-03-31T04:23:10.409Z,0.75
2023-03-31T04:24:10.421Z,0.71
2023-03-31T04:25:10.480Z,0.73
2023-03-31T04:26:10.536Z,0.76
2023-03-31T04:27:10.553Z,0.78
2023-03-31T04:28:10.588Z,0.78
2023-03-31T04:29:10.620Z,0.81
2023-03-31T04:30:10.659Z,0.80
2023-03-31T04:31:10.701Z,0.81
2023-03-31T04:32:10.800Z,0.81
2023-03-31T04:33:10.814Z,0.85
2023-03-31T04:34:10.813Z,0.85
2023-03-31T04:35:10.827Z,0.82
2023-03-31T04:36:10.874Z,0.84
2023-03-31T04:37:10.902Z,0.84
2023-03-31T04:38:10.931Z,0.83
2023-03-31T04:39:10.947Z,0.84
2023-03-31T04:40:11.013Z,0.83
2023-03-31T04:41:11.050Z,0.81
2023-03-31T04:42:11.104Z,0.82
2023-03-31T04:43:11.109Z,0.82
2023-03-31T04:44:11.187Z,0.82
2023-03-31T04:45:11.207Z,0.83
2023-03-31T04:46:11.274Z,0.84
2023-03-31T04:47:11.257Z,0.83
2023-03-31T04:48:11.330Z,0.84
2023-03-31T04:49:11.345Z,0.83
2023-03-31T04:50:15.343Z,0.85
2023-03-31T04:51:12.355Z,0.85
2023-03-31T04:52:11.348Z,0.85
2023-03-31T04:53:11.333Z,0.85
2023-03-31T04:54:11.328Z,0.84
2023-03-31T04:55:11.376Z,0.83
2023-03-31T04:56:11.323Z,0.84
2023-03-31T04:57:11.347Z,0.86
2023-03-31T04:58:11.313Z,0.83
2023-03-31T04:59:11.313Z,0.85
2023-03-31T05:00:11.280Z,0.83
2023-03-31T05:01:11.333Z,0.84
2023-03-31T05:02:13.068Z,0.85
2023-03-31T05:03:11.310Z,0.85
2023-03-31T05:04:11.282Z,0.86
2023-03-31T05:05:11.255Z,0.87
2023-03-31T05:06:11.306Z,0.89
2023-03-31T05:07:11.323Z,0.85
2023-03-31T05:08:11.337Z,0.88
2023-03-31T05:09:11.361Z,0.88
2023-03-31T05:10:11.397Z,0.86
2023-03-31T05:11:11.490Z,0.88
2023-03-31T05:12:11.462Z,0.89
2023-03-31T05:13:11.501Z,0.89
2023-03-31T05:14:11.508Z,0.89
2023-03-31T05:15:12.037Z,0.89
2023-03-31T05:16:11.591Z,0.88
2023-03-31T05:17:11.594Z,0.89
2023-03-31T05:18:11.636Z,0.91
2023-03-31T05:19:11.658Z,0.91
2023-03-31T05:20:11.699Z,0.92
2023-03-31T05:21:11.731Z,0.89
2023-03-31T05:22:11.786Z,0.88
2023-03-31T05:23:11.796Z,0.83
2023-03-31T05:24:11.861Z,0.84
2023-03-31T05:25:11.942Z,0.86
2023-03-31T05:26:11.931Z,0.91
2023-03-31T05:27:11.948Z,0.97
2023-03-31T05:28:12.004Z,1.01
2023-03-31T05:29:12.014Z,1.05
2023-03-31T05:30:12.140Z,1.07
2023-03-31T05:31:12.125Z,1.16
2023-03-31T05:32:12.258Z,1.18
2023-03-31T05:33:12.203Z,1.19
2023-03-31T05:34:12.233Z,1.26
2023-03-31T05:35:12.253Z,1.49
2023-03-31T05:36:12.340Z,1.59
2023-03-31T05:37:12.320Z,1.71
2023-03-31T05:38:12.349Z,1.76
2023-03-31T05:39:12.355Z,1.82
2023-03-31T05:40:13.066Z,1.91
2023-03-31T05:41:12.438Z,2.01
2023-03-31T05:42:12.447Z,2.07
2023-03-31T05:43:12.620Z,2.19
2023-03-31T05:44:12.518Z,2.50
2023-03-31T05:45:12.605Z,2.71
2023-03-31T05:46:12.644Z,2.75
2023-03-31T05:47:12.618Z,2.72
2023-03-31T05:48:13.168Z,2.82
2023-03-31T05:49:12.660Z,2.89
2023-03-31T05:50:14.800Z,3.09
2023-03-31T05:51:12.765Z,3.02
2023-03-31T05:52:12.772Z,2.97
2023-03-31T05:53:13.077Z,2.78
2023-03-31T05:54:12.871Z,2.76
2023-03-31T05:55:12.941Z,2.65
2023-03-31T05:56:13.007Z,3.17
2023-03-31T05:57:13.094Z,2.42
2023-03-31T05:58:13.065Z,2.84
2023-03-31T05:59:15.004Z,2.86
2023-03-31T06:00:13.101Z,2.51
2023-03-31T06:01:13.355Z,2.20
2023-03-31T06:02:13.190Z,1.99
2023-03-31T06:03:13.224Z,1.87
2023-03-31T06:04:13.331Z,1.90
2023-03-31T06:05:13.247Z,1.89
2023-03-31T06:06:13.352Z,1.93
2023-03-31T06:07:13.332Z,1.97
2023-03-31T06:08:13.359Z,2.19
2023-03-31T06:09:13.369Z,2.23
2023-03-31T06:10:13.394Z,2.33
2023-03-31T06:11:13.400Z,2.42
2023-03-31T06:12:13.408Z,2.44
2023-03-31T06:13:13.596Z,2.45
2023-03-31T06:14:13.482Z,2.55
2023-03-31T06:15:13.490Z,2.61
2023-03-31T06:16:13.618Z,2.64
2023-03-31T06:17:13.563Z,2.65
2023-03-31T06:18:13.594Z,2.24
2023-03-31T06:19:13.620Z,2.21
2023-03-31T06:20:27.273Z,2.10
2023-03-31T06:21:14.663Z,2.07
2023-03-31T06:22:13.630Z,1.92
2023-03-31T06:23:13.642Z,1.82
2023-03-31T06:24:13.690Z,1.71
2023-03-31T06:25:13.703Z,1.78
2023-03-31T06:26:14.632Z,1.94
2023-03-31T06:27:13.609Z,1.94
2023-03-31T06:28:14.661Z,1.96
2023-03-31T06:29:13.610Z,1.86
2023-03-31T06:30:13.605Z,1.90
2023-03-31T06:31:13.612Z,1.88
2023-03-31T06:32:13.607Z,1.89
2023-03-31T06:33:14.628Z,2.04
2023-03-31T06:34:13.674Z,2.16
2023-03-31T06:35:13.699Z,2.22
2023-03-31T06:36:13.708Z,2.26
2023-03-31T06:37:13.792Z,2.35
2023-03-31T06:38:13.763Z,2.43
2023-03-31T06:39:14.086Z,2.25
2023-03-31T06:40:13.868Z,2.12
2023-03-31T06:41:13.890Z,2.07
2023-03-31T06:42:13.912Z,2.06
2023-03-31T06:43:13.982Z,2.14
2023-03-31T06:44:13.998Z,2.08
2023-03-31T06:45:14.032Z,2.14
2023-03-31T06:46:14.171Z,2.13
2023-03-31T06:47:14.131Z,2.29
2023-03-31T06:48:14.214Z,2.32
2023-03-31T06:49:14.239Z,2.35
2023-03-31T06:50:14.289Z,2.36
2023-03-31T06:51:14.418Z,2.41
2023-03-31T06:52:14.344Z,2.55
2023-03-31T06:53:14.590Z,2.68
2023-03-31T06:54:14.475Z,2.66
2023-03-31T06:55:14.399Z,2.58
2023-03-31T06:56:14.442Z,2.65
2023-03-31T06:57:14.475Z,2.54
2023-03-31T06:58:14.476Z,2.51
2023-03-31T06:59:14.538Z,2.45
2023-03-31T07:00:14.517Z,2.35
2023-03-31T07:01:14.593Z,2.38
2023-03-31T07:02:14.596Z,2.40
2023-03-31T07:03:14.776Z,2.47
2023-03-31T07:04:14.611Z,2.53
2023-03-31T07:05:14.641Z,2.55
2023-03-31T07:06:14.698Z,2.47
2023-03-31T07:07:14.696Z,2.53
2023-03-31T07:08:14.745Z,2.53
2023-03-31T07:09:15.129Z,2.58
2023-03-31T07:10:14.842Z,2.64
2023-03-31T07:11:14.887Z,2.69
2023-03-31T07:12:14.908Z,2.68
2023-03-31T07:13:14.958Z,2.64
2023-03-31T07:14:15.023Z,2.67
2023-03-31T07:15:15.051Z,2.75
2023-03-31T07:16:15.158Z,2.78
2023-03-31T07:17:15.117Z,2.82
2023-03-31T07:18:15.173Z,2.86
2023-03-31T07:19:15.141Z,3.00
2023-03-31T07:20:15.160Z,3.22
2023-03-31T07:21:15.277Z,3.41
2023-03-31T07:22:15.196Z,3.61
2023-03-31T07:23:15.244Z,3.88
2023-03-31T07:24:15.264Z,4.16
2023-03-31T07:25:15.303Z,4.59
2023-03-31T07:26:15.354Z,5.40
2023-03-31T07:27:15.354Z,6.68
2023-03-31T07:28:15.393Z,6.18
2023-03-31T07:29:15.645Z,6.20
2023-03-31T07:30:15.422Z,6.83
2023-03-31T07:31:15.432Z,6.13
2023-03-31T07:32:15.568Z,4.95
2023-03-31T07:33:15.593Z,4.22
2023-03-31T07:34:15.593Z,4.09
2023-03-31T07:35:15.614Z,3.59
2023-03-31T07:36:15.969Z,3.38
2023-03-31T07:37:15.680Z,3.25
2023-03-31T07:38:15.722Z,3.00
2023-03-31T07:39:16.133Z,3.04
2023-03-31T07:40:16.118Z,2.96
2023-03-31T07:41:15.780Z,2.79
2023-03-31T07:42:15.747Z,2.70
2023-03-31T07:43:15.767Z,2.69
2023-03-31T07:44:15.822Z,2.81
2023-03-31T07:45:16.118Z,2.68
2023-03-31T07:46:15.945Z,2.53
2023-03-31T07:47:15.858Z,2.40
2023-03-31T07:48:15.955Z,2.19
2023-03-31T07:49:15.971Z,2.13
2023-03-31T07:50:15.941Z,2.25
2023-03-31T07:51:15.951Z,2.37
2023-03-31T07:52:15.948Z,2.37
2023-03-31T07:53:16.000Z,2.48
2023-03-31T07:54:16.023Z,2.54
2023-03-31T07:55:16.012Z,2.57
2023-03-31T07:56:16.081Z,2.62
2023-03-31T07:57:16.114Z,2.62
2023-03-31T07:58:16.143Z,2.67
2023-03-31T07:59:16.214Z,2.69
2023-03-31T08:00:16.276Z,2.72
2023-03-31T08:01:16.274Z,2.77
2023-03-31T08:02:16.348Z,2.79
2023-03-31T08:03:16.355Z,2.80
2023-03-31T08:04:16.390Z,2.86
2023-03-31T08:05:16.396Z,2.83
2023-03-31T08:06:16.405Z,3.27
2023-03-31T08:07:16.454Z,3.30
2023-03-31T08:08:16.493Z,3.26
2023-03-31T08:09:16.644Z,3.19
2023-03-31T08:10:16.524Z,3.14
2023-03-31T08:11:16.531Z,3.23
2023-03-31T08:12:16.553Z,3.25
2023-03-31T08:13:16.570Z,3.27
2023-03-31T08:14:21.940Z,3.26
2023-03-31T08:15:17.579Z,3.27
2023-03-31T08:16:16.651Z,3.28
2023-03-31T08:17:16.596Z,3.31
2023-03-31T08:18:16.551Z,3.32
2023-03-31T08:19:16.588Z,3.41
2023-03-31T08:20:16.597Z,3.43
2023-03-31T08:21:16.647Z,3.68
2023-03-31T08:22:16.539Z,3.34
2023-03-31T08:23:16.548Z,3.14
2023-03-31T08:24:16.539Z,2.84
2023-03-31T08:25:16.535Z,2.35
2023-03-31T08:26:18.019Z,2.47
2023-03-31T08:27:16.538Z,2.52
2023-03-31T08:28:16.588Z,2.41
2023-03-31T08:29:16.647Z,2.31
2023-03-31T08:30:16.662Z,2.22
2023-03-31T08:31:16.791Z,2.27
2023-03-31T08:32:16.746Z,2.01
2023-03-31T08:33:16.809Z,1.82
2023-03-31T08:34:16.846Z,1.79
2023-03-31T08:35:16.882Z,1.86
2023-03-31T08:36:16.950Z,1.64
2023-03-31T08:37:17.145Z,1.54
2023-03-31T08:38:17.025Z,1.59
2023-03-31T08:39:17.146Z,1.50
2023-03-31T08:40:17.092Z,1.30
2023-03-31T08:41:17.188Z,1.27
2023-03-31T08:42:17.212Z,1.29
2023-03-31T08:43:17.263Z,1.21
2023-03-31T08:44:17.278Z,1.13
2023-03-31T08:45:17.314Z,0.98
2023-03-31T08:46:17.373Z,0.66
2023-03-31T08:47:17.397Z,0.56
2023-03-31T08:48:17.428Z,0.50
2023-03-31T08:49:17.445Z,0.50
2023-03-31T08:50:17.524Z,0.50
2023-03-31T08:51:17.624Z,0.51
2023-03-31T08:52:17.657Z,0.52
2023-03-31T08:53:17.608Z,0.51
2023-03-31T08:54:17.641Z,0.51
2023-03-31T08:55:17.718Z,0.50
2023-03-31T08:56:17.666Z,0.50
2023-03-31T08:57:17.704Z,0.52
2023-03-31T08:58:17.700Z,0.50
2023-03-31T08:59:18.152Z,0.50
2023-03-31T09:00:17.806Z,0.52
2023-03-31T09:01:17.855Z,0.52
2023-03-31T09:02:17.873Z,0.51
2023-03-31T09:03:18.051Z,0.54
2023-03-31T09:04:18.137Z,0.57
2023-03-31T09:05:17.952Z,0.65
2023-03-31T09:06:18.154Z,0.66
2023-03-31T09:07:17.958Z,0.75
2023-03-31T09:08:17.983Z,0.69
2023-03-31T09:09:18.048Z,0.65
2023-03-31T09:10:18.161Z,0.65
2023-03-31T09:11:18.100Z,0.61
2023-03-31T09:12:18.138Z,1.04
2023-03-31T09:13:18.105Z,1.05
2023-03-31T09:14:18.124Z,1.19
2023-03-31T09:15:18.158Z,1.34
2023-03-31T09:16:18.204Z,1.66
2023-03-31T09:17:18.249Z,1.54
2023-03-31T09:18:18.266Z,1.32
2023-03-31T09:19:18.288Z,1.61
2023-03-31T09:20:18.311Z,1.25
2023-03-31T09:21:18.342Z,0.99
2023-03-31T09:22:18.365Z,0.82
2023-03-31T09:23:18.430Z,0.74
2023-03-31T09:24:18.477Z,0.69
2023-03-31T09:25:18.497Z,0.75
2023-03-31T09:26:18.543Z,0.85
2023-03-31T09:27:18.573Z,0.94
2023-03-31T09:28:18.570Z,1.27
2023-03-31T09:29:18.649Z,1.56
2023-03-31T09:30:18.726Z,1.52
2023-03-31T09:31:18.737Z,1.67
2023-03-31T09:32:18.767Z,1.99
2023-03-31T09:33:18.758Z,2.21
2023-03-31T09:34:18.818Z,2.57
2023-03-31T09:35:18.822Z,2.85
2023-03-31T09:36:18.889Z,2.93
2023-03-31T09:37:18.870Z,3.22
2023-03-31T09:38:18.911Z,3.49
2023-03-31T09:39:18.932Z,3.76
2023-03-31T09:40:19.229Z,4.14
2023-03-31T09:41:18.989Z,4.20
2023-03-31T09:42:19.001Z,4.35
2023-03-31T09:43:19.024Z,4.47
2023-03-31T09:44:19.041Z,4.25
2023-03-31T09:45:19.073Z,4.17
2023-03-31T09:46:19.337Z,4.27
2023-03-31T09:47:19.161Z,4.41
2023-03-31T09:48:19.182Z,4.27
2023-03-31T09:49:19.176Z,4.01
2023-03-31T09:50:19.216Z,3.90
2023-03-31T09:51:20.217Z,3.66
2023-03-31T09:52:19.213Z,3.81
2023-03-31T09:53:19.180Z,3.35
2023-03-31T09:54:19.713Z,3.16
2023-03-31T09:55:28.811Z,3.54
2023-03-31T09:56:20.165Z,3.90
2023-03-31T09:57:19.227Z,3.86
2023-03-31T09:58:19.139Z,3.86
2023-03-31T09:59:19.186Z,3.34
2023-03-31T10:00:19.169Z,3.64
2023-03-31T10:01:19.143Z,3.95
2023-03-31T10:02:19.106Z,3.84
2023-03-31T10:03:19.124Z,3.91
2023-03-31T10:04:19.219Z,3.85
2023-03-31T10:05:19.128Z,3.63
2023-03-31T10:06:19.117Z,2.99
2023-03-31T10:07:19.083Z,2.36
2023-03-31T10:08:19.048Z,2.07
2023-03-31T10:09:19.214Z,2.03
2023-03-31T10:10:19.197Z,2.24
2023-03-31T10:11:19.089Z,2.52
2023-03-31T10:12:19.128Z,2.50
2023-03-31T10:13:19.117Z,2.45
2023-03-31T10:14:19.145Z,2.55
2023-03-31T10:15:19.184Z,2.55
2023-03-31T10:16:19.209Z,2.53
2023-03-31T10:17:19.162Z,2.15
2023-03-31T10:18:19.254Z,1.69
2023-03-31T10:19:19.223Z,1.42
2023-03-31T10:20:19.733Z,1.32
2023-03-31T10:21:19.313Z,1.37
2023-03-31T10:22:19.334Z,1.72
2023-03-31T10:23:19.346Z,2.16
2023-03-31T10:24:19.415Z,2.56
2023-03-31T10:25:19.439Z,3.02
2023-03-31T10:26:19.486Z,3.26
2023-03-31T10:27:20.048Z,3.39
2023-03-31T10:28:19.729Z,3.59
2023-03-31T10:29:19.596Z,4.08
2023-03-31T10:30:19.681Z,4.17
2023-03-31T10:31:19.644Z,4.19
2023-03-31T10:32:19.618Z,4.57
2023-03-31T10:33:23.110Z,4.65
2023-03-31T10:34:19.643Z,4.74
2023-03-31T10:35:19.650Z,4.14
2023-03-31T10:36:19.651Z,3.91
2023-03-31T10:37:19.622Z,4.02
2023-03-31T10:38:19.656Z,3.75
2023-03-31T10:39:19.609Z,3.51
2023-03-31T10:40:19.697Z,3.58
2023-03-31T10:41:19.643Z,3.41
2023-03-31T10:42:19.587Z,3.53
2023-03-31T10:43:19.563Z,3.31
2023-03-31T10:44:19.549Z,3.32
2023-03-31T10:45:33.580Z,3.29
2023-03-31T10:46:20.559Z,3.30
2023-03-31T10:47:19.551Z,3.23
2023-03-31T10:48:19.556Z,3.28
2023-03-31T10:49:19.527Z,3.24
2023-03-31T10:50:19.683Z,3.32
2023-03-31T10:51:19.551Z,3.35
2023-03-31T10:52:19.504Z,3.21
2023-03-31T10:53:19.503Z,3.34
2023-03-31T10:54:19.505Z,3.18
2023-03-31T10:55:19.706Z,2.88
2023-03-31T10:56:19.688Z,2.71
2023-03-31T10:57:19.495Z,2.37
2023-03-31T10:58:19.599Z,2.06
2023-03-31T10:59:19.489Z,2.02
2023-03-31T11:00:19.510Z,2.07
2023-03-31T11:01:19.720Z,1.93
2023-03-31T11:02:19.632Z,1.79
2023-03-31T11:03:19.690Z,2.03
2023-03-31T11:04:19.575Z,1.80
2023-03-31T11:05:19.596Z,1.81
2023-03-31T11:06:19.718Z,1.81
2023-03-31T11:07:19.623Z,1.89
2023-03-31T11:08:20.280Z,2.12
2023-03-31T11:09:19.702Z,2.08
2023-03-31T11:10:19.747Z,2.20
2023-03-31T11:11:19.755Z,2.10
2023-03-31T11:12:19.810Z,2.35
2023-03-31T11:13:19.839Z,2.40
2023-03-31T11:14:20.692Z,2.33
2023-03-31T11:15:19.874Z,2.33
2023-03-31T11:16:19.959Z,2.07
2023-03-31T11:17:19.980Z,1.83
2023-03-31T11:18:19.942Z,1.57
2023-03-31T11:19:19.957Z,1.42
2023-03-31T11:20:20.029Z,1.45
2023-03-31T11:21:20.007Z,1.42
2023-03-31T11:22:20.045Z,1.48
2023-03-31T11:23:20.107Z,1.56
2023-03-31T11:24:20.152Z,1.88
2023-03-31T11:25:20.148Z,2.12
2023-03-31T11:26:20.198Z,2.02
2023-03-31T11:27:20.215Z,2.04
2023-03-31T11:28:20.295Z,2.18
2023-03-31T11:29:20.267Z,2.27
2023-03-31T11:30:20.322Z,2.38
2023-03-31T11:31:20.367Z,2.30
2023-03-31T11:32:20.371Z,2.02
2023-03-31T11:33:20.417Z,1.94
2023-03-31T11:34:20.504Z,1.89
2023-03-31T11:35:20.516Z,1.88
2023-03-31T11:36:20.689Z,1.68
2023-03-31T11:37:20.608Z,1.63
2023-03-31T11:38:23.313Z,1.53
2023-03-31T11:39:20.666Z,1.36
2023-03-31T11:40:20.646Z,1.26
2023-03-31T11:41:20.663Z,1.11
2023-03-31T11:42:20.635Z,1.01
2023-03-31T11:43:20.632Z,0.96
2023-03-31T11:44:20.641Z,0.93
2023-03-31T11:45:20.655Z,0.98
2023-03-31T11:46:20.696Z,0.98
2023-03-31T11:47:20.626Z,0.92
2023-03-31T11:48:20.626Z,0.81
2023-03-31T11:49:20.601Z,0.81
2023-03-31T11:50:20.592Z,0.77
2023-03-31T11:51:20.593Z,0.72
2023-03-31T11:52:20.580Z,0.78
2023-03-31T11:53:20.562Z,0.80
2023-03-31T11:54:20.575Z,0.68
2023-03-31T11:55:20.538Z,0.65
2023-03-31T11:56:20.586Z,0.61
2023-03-31T11:57:20.577Z,0.58
2023-03-31T11:58:20.517Z,0.64
2023-03-31T11:59:20.523Z,0.63
2023-03-31T12:00:20.540Z,0.74
2023-03-31T12:01:20.719Z,0.60
2023-03-31T12:02:20.702Z,0.59
2023-03-31T12:03:20.607Z,0.57
2023-03-31T12:04:20.515Z,0.55
2023-03-31T12:05:20.628Z,0.54
2023-03-31T12:06:20.642Z,0.51
2023-03-31T12:07:20.448Z,0.54
2023-03-31T12:08:20.484Z,0.51
2023-03-31T12:09:20.442Z,0.51
2023-03-31T12:10:20.473Z,0.51
2023-03-31T12:11:20.444Z,0.50
2023-03-31T12:12:20.422Z,0.52
2023-03-31T12:13:20.429Z,0.52
2023-03-31T12:14:20.399Z,0.53
2023-03-31T12:15:20.412Z,0.50
2023-03-31T12:16:20.502Z,0.50
2023-03-31T12:17:20.405Z,0.52
2023-03-31T12:18:20.379Z,0.51
2023-03-31T12:19:20.379Z,0.51
2023-03-31T12:20:20.397Z,0.49
2023-03-31T12:21:20.356Z,0.50
2023-03-31T12:22:20.356Z,0.53
2023-03-31T12:23:20.329Z,0.54
2023-03-31T12:24:20.319Z,0.54
2023-03-31T12:25:20.334Z,0.51
2023-03-31T12:26:20.297Z,0.50
2023-03-31T12:27:20.302Z,0.51
2023-03-31T12:28:20.287Z,0.53
2023-03-31T12:29:20.295Z,0.54
2023-03-31T12:30:20.273Z,0.50
2023-03-31T12:31:20.313Z,0.51
2023-03-31T12:32:20.265Z,0.50
2023-03-31T12:33:20.276Z,0.52
2023-03-31T12:34:20.257Z,0.49
2023-03-31T12:35:20.251Z,0.51
2023-03-31T12:36:20.247Z,0.51
2023-03-31T12:37:20.280Z,0.50
2023-03-31T12:38:20.339Z,0.52
2023-03-31T12:39:20.412Z,0.50
2023-03-31T12:40:20.466Z,0.53
2023-03-31T12:41:20.483Z,0.51
2023-03-31T12:42:20.479Z,0.52
2023-03-31T12:43:20.486Z,0.55
2023-03-31T12:44:20.535Z,0.69
2023-03-31T12:45:20.595Z,0.64
2023-03-31T12:46:20.642Z,0.60
2023-03-31T12:47:20.620Z,0.70
2023-03-31T12:48:20.637Z,0.76
2023-03-31T12:49:20.698Z,0.75
2023-03-31T12:50:20.763Z,0.74
2023-03-31T12:51:20.832Z,0.75
2023-03-31T12:52:20.848Z,0.76
2023-03-31T12:53:20.951Z,0.71
2023-03-31T12:54:20.930Z,0.80
2023-03-31T12:55:20.963Z,0.82
2023-03-31T12:56:21.011Z,0.70
2023-03-31T12:57:21.072Z,0.60
2023-03-31T12:58:21.019Z,0.50
2023-03-31T12:59:21.026Z,0.49
2023-03-31T13:00:21.096Z,0.50
2023-03-31T13:01:21.113Z,0.50
2023-03-31T13:02:21.219Z,0.51
2023-03-31T13:03:21.180Z,0.50
2023-03-31T13:04:21.178Z,0.50
2023-03-31T13:05:21.199Z,0.52
2023-03-31T13:06:21.223Z,0.50
2023-03-31T13:07:27.845Z,0.58
2023-03-31T13:08:22.279Z,0.57
2023-03-31T13:09:21.254Z,0.59
2023-03-31T13:10:21.269Z,0.60
2023-03-31T13:11:21.246Z,0.59
2023-03-31T13:12:21.226Z,0.55
2023-03-31T13:13:21.203Z,0.52
2023-03-31T13:14:21.203Z,0.61
2023-03-31T13:15:21.188Z,0.69
2023-03-31T13:16:21.286Z,0.68
2023-03-31T13:17:21.175Z,0.67
2023-03-31T13:18:21.198Z,0.62